sensor_id;sensor_type;location;lat;lon;timestamp;temperature;humidity
30308;DHT22;17114;52.314;8.910;2023-03-03T00:01:32;1.90;99.90
30308;DHT22;17114;52.314;8.910;2023-03-03T00:03:59;1.90;99.90
30308;DHT22;17114;52.314;8.910;2023-03-03T00:06:26;1.90;99.90
30308;DHT22;17114;52.314;8.910;2023-03-03T00:08:55;1.90;99.90
30308;DHT22;17114;52.314;8.910;2023-03-03T00:11:22;1.80;99.90
30308;DHT22;17114;52.314;8.910;2023-03-03T00:13:54;2.00;99.90
30308;DHT22;17114;52.314;8.910;2023-03-03T00:16:31;1.90;99.90
30308;DHT22;17114;52.314;8.910;2023-03-03T00:19:00;1.90;99.90
30308;DHT22;17114;52.314;8.910;2023-03-03T00:21:34;2.00;99.90
30308;DHT22;17114;52.314;8.910;2023-03-03T00:24:17;1.90;99.90
30308;DHT22;17114;52.314;8.910;2023-03-03T00:26:47;1.90;99.90
30308;DHT22;17114;52.314;8.910;2023-03-03T00:31:50;1.90;99.90
30308;DHT22;17114;52.314;8.910;2023-03-03T00:34:27;1.90;99.90
30308;DHT22;17114;52.314;8.910;2023-03-03T00:36:57;1.90;99.90
30308;DHT22;17114;52.314;8.910;2023-03-03T00:39:36;1.90;99.90
30308;DHT22;17114;52.314;8.910;2023-03-03T00:42:13;1.90;99.90
30308;DHT22;17114;52.314;8.910;2023-03-03T00:44:41;1.90;99.90
30308;DHT22;17114;52.314;8.910;2023-03-03T00:52:36;1.80;99.90
30308;DHT22;17114;52.314;8.910;2023-03-03T00:55:04;1.70;99.90
30308;DHT22;17114;52.314;8.910;2023-03-03T00:57:31;1.70;99.90
30308;DHT22;17114;52.314;8.910;2023-03-03T00:59:58;1.60;99.90
30308;DHT22;17114;52.314;8.910;2023-03-03T01:02:25;1.50;99.90
30308;DHT22;17114;52.314;8.910;2023-03-03T01:04:53;1.50;99.90
30308;DHT22;17114;52.314;8.910;2023-03-03T01:07:23;1.40;99.90
30308;DHT22;17114;52.314;8.910;2023-03-03T01:09:49;1.40;99.90
30308;DHT22;17114;52.314;8.910;2023-03-03T01:12:16;1.40;99.90
30308;DHT22;17114;52.314;8.910;2023-03-03T01:14:43;1.40;99.90
30308;DHT22;17114;52.314;8.910;2023-03-03T01:17:11;1.40;99.90
30308;DHT22;17114;52.314;8.910;2023-03-03T01:19:37;1.30;99.90
30308;DHT22;17114;52.314;8.910;2023-03-03T01:22:04;1.30;99.90
30308;DHT22;17114;52.314;8.910;2023-03-03T01:24:31;1.30;99.90
30308;DHT22;17114;52.314;8.910;2023-03-03T01:26:59;1.30;99.90
30308;DHT22;17114;52.314;8.910;2023-03-03T01:29:26;1.20;99.90
30308;DHT22;17114;52.314;8.910;2023-03-03T01:31:52;1.30;99.90
30308;DHT22;17114;52.314;8.910;2023-03-03T01:34:19;1.20;99.90
30308;DHT22;17114;52.314;8.910;2023-03-03T01:36:47;1.20;99.90
30308;DHT22;17114;52.314;8.910;2023-03-03T01:39:14;1.10;99.90
30308;DHT22;17114;52.314;8.910;2023-03-03T01:41:40;1.10;99.90
30308;DHT22;17114;52.314;8.910;2023-03-03T01:44:13;1.10;99.90
30308;DHT22;17114;52.314;8.910;2023-03-03T01:46:56;1.10;99.90
30308;DHT22;17114;52.314;8.910;2023-03-03T01:49:32;1.00;99.90
30308;DHT22;17114;52.314;8.910;2023-03-03T01:52:03;1.00;99.90
30308;DHT22;17114;52.314;8.910;2023-03-03T01:54:41;1.00;99.90
30308;DHT22;17114;52.314;8.910;2023-03-03T01:57:17;0.90;99.90
30308;DHT22;17114;52.314;8.910;2023-03-03T01:59:48;0.90;99.90
30308;DHT22;17114;52.314;8.910;2023-03-03T02:02:17;0.90;99.90
30308;DHT22;17114;52.314;8.910;2023-03-03T02:04:44;1.10;99.90
30308;DHT22;17114;52.314;8.910;2023-03-03T02:07:13;0.90;99.90
30308;DHT22;17114;52.314;8.910;2023-03-03T02:12:18;1.00;99.90
30308;DHT22;17114;52.314;8.910;2023-03-03T02:14:45;1.00;99.90
30308;DHT22;17114;52.314;8.910;2023-03-03T02:17:12;1.10;99.90
30308;DHT22;17114;52.314;8.910;2023-03-03T02:20:02;0.90;99.90
30308;DHT22;17114;52.314;8.910;2023-03-03T02:22:43;1.00;99.90
30308;DHT22;17114;52.314;8.910;2023-03-03T02:25:21;1.00;99.90
30308;DHT22;17114;52.314;8.910;2023-03-03T02:27:50;0.90;99.90
30308;DHT22;17114;52.314;8.910;2023-03-03T02:30:20;1.00;99.90
30308;DHT22;17114;52.314;8.910;2023-03-03T02:32:47;1.00;99.90
30308;DHT22;17114;52.314;8.910;2023-03-03T02:35:35;0.90;99.90
30308;DHT22;17114;52.314;8.910;2023-03-03T02:43:26;1.00;99.90
30308;DHT22;17114;52.314;8.910;2023-03-03T02:45:55;1.00;99.90
30308;DHT22;17114;52.314;8.910;2023-03-03T02:48:22;1.00;99.90
30308;DHT22;17114;52.314;8.910;2023-03-03T02:50:49;1.00;99.90
30308;DHT22;17114;52.314;8.910;2023-03-03T02:53:16;0.90;99.90
30308;DHT22;17114;52.314;8.910;2023-03-03T02:55:42;1.00;99.90
30308;DHT22;17114;52.314;8.910;2023-03-03T02:58:09;0.90;99.90
30308;DHT22;17114;52.314;8.910;2023-03-03T03:00:36;0.90;99.90
30308;DHT22;17114;52.314;8.910;2023-03-03T03:03:03;0.90;99.90
30308;DHT22;17114;52.314;8.910;2023-03-03T03:05:30;0.90;99.90
30308;DHT22;17114;52.314;8.910;2023-03-03T03:07:57;0.90;99.90
30308;DHT22;17114;52.314;8.910;2023-03-03T03:10:24;1.00;99.90
30308;DHT22;17114;52.314;8.910;2023-03-03T03:12:51;0.90;99.90
30308;DHT22;17114;52.314;8.910;2023-03-03T03:15:18;1.00;99.90
30308;DHT22;17114;52.314;8.910;2023-03-03T03:17:45;0.90;99.90
30308;DHT22;17114;52.314;8.910;2023-03-03T03:20:12;0.90;99.90
30308;DHT22;17114;52.314;8.910;2023-03-03T03:22:39;0.90;99.90
30308;DHT22;17114;52.314;8.910;2023-03-03T03:25:06;0.90;99.90
30308;DHT22;17114;52.314;8.910;2023-03-03T03:27:33;0.80;99.90
30308;DHT22;17114;52.314;8.910;2023-03-03T03:30:00;0.80;99.90
30308;DHT22;17114;52.314;8.910;2023-03-03T03:32:27;0.80;99.90
30308;DHT22;17114;52.314;8.910;2023-03-03T03:34:53;0.80;99.90
30308;DHT22;17114;52.314;8.910;2023-03-03T03:37:20;0.80;99.90
30308;DHT22;17114;52.314;8.910;2023-03-03T03:39:47;0.80;99.90
30308;DHT22;17114;52.314;8.910;2023-03-03T03:42:14;0.80;99.90
30308;DHT22;17114;52.314;8.910;2023-03-03T03:44:41;0.80;99.90
30308;DHT22;17114;52.314;8.910;2023-03-03T03:47:08;0.80;99.90
30308;DHT22;17114;52.314;8.910;2023-03-03T03:49:35;1.00;99.90
30308;DHT22;17114;52.314;8.910;2023-03-03T03:52:02;0.80;99.90
30308;DHT22;17114;52.314;8.910;2023-03-03T03:54:29;0.70;99.90
30308;DHT22;17114;52.314;8.910;2023-03-03T03:56:56;0.70;99.90
30308;DHT22;17114;52.314;8.910;2023-03-03T03:59:23;0.70;99.90
30308;DHT22;17114;52.314;8.910;2023-03-03T04:01:49;0.70;99.90
30308;DHT22;17114;52.314;8.910;2023-03-03T04:04:16;0.70;99.90
30308;DHT22;17114;52.314;8.910;2023-03-03T04:06:43;0.80;99.90
30308;DHT22;17114;52.314;8.910;2023-03-03T04:09:12;0.70;99.90
30308;DHT22;17114;52.314;8.910;2023-03-03T04:11:39;0.70;99.90
30308;DHT22;17114;52.314;8.910;2023-03-03T04:14:06;0.90;99.90
30308;DHT22;17114;52.314;8.910;2023-03-03T04:16:33;0.70;99.90
30308;DHT22;17114;52.314;8.910;2023-03-03T04:19:00;0.80;99.90
30308;DHT22;17114;52.314;8.910;2023-03-03T04:21:27;0.70;99.90
30308;DHT22;17114;52.314;8.910;2023-03-03T04:23:53;0.90;99.90
30308;DHT22;17114;52.314;8.910;2023-03-03T04:26:20;0.70;99.90
30308;DHT22;17114;52.314;8.910;2023-03-03T04:28:47;0.80;99.90
30308;DHT22;17114;52.314;8.910;2023-03-03T04:31:14;0.80;99.90
30308;DHT22;17114;52.314;8.910;2023-03-03T04:33:41;0.80;99.90
30308;DHT22;17114;52.314;8.910;2023-03-03T04:36:07;0.70;99.90
30308;DHT22;17114;52.314;8.910;2023-03-03T04:38:34;0.70;99.90
30308;DHT22;17114;52.314;8.910;2023-03-03T04:41:01;0.80;99.90
30308;DHT22;17114;52.314;8.910;2023-03-03T04:43:28;0.70;99.90
30308;DHT22;17114;52.314;8.910;2023-03-03T04:45:55;0.70;99.90
30308;DHT22;17114;52.314;8.910;2023-03-03T04:48:22;0.70;99.90
30308;DHT22;17114;52.314;8.910;2023-03-03T04:50:48;0.70;99.90
30308;DHT22;17114;52.314;8.910;2023-03-03T04:53:15;0.90;99.90
30308;DHT22;17114;52.314;8.910;2023-03-03T04:55:42;0.70;99.90
30308;DHT22;17114;52.314;8.910;2023-03-03T04:58:09;0.80;99.90
30308;DHT22;17114;52.314;8.910;2023-03-03T05:00:36;0.70;99.90
30308;DHT22;17114;52.314;8.910;2023-03-03T05:03:06;0.70;99.90
30308;DHT22;17114;52.314;8.910;2023-03-03T05:05:34;0.70;99.90
30308;DHT22;17114;52.314;8.910;2023-03-03T05:08:00;0.90;99.90
30308;DHT22;17114;52.314;8.910;2023-03-03T05:10:27;0.70;99.90
30308;DHT22;17114;52.314;8.910;2023-03-03T05:12:55;0.60;99.90
30308;DHT22;17114;52.314;8.910;2023-03-03T05:15:21;0.60;99.90
30308;DHT22;17114;52.314;8.910;2023-03-03T05:17:49;0.60;99.90
30308;DHT22;17114;52.314;8.910;2023-03-03T05:20:18;0.60;99.90
30308;DHT22;17114;52.314;8.910;2023-03-03T05:22:45;0.60;99.90
30308;DHT22;17114;52.314;8.910;2023-03-03T05:25:12;0.60;99.90
30308;DHT22;17114;52.314;8.910;2023-03-03T05:27:39;0.60;99.90
30308;DHT22;17114;52.314;8.910;2023-03-03T05:30:07;0.50;99.90
30308;DHT22;17114;52.314;8.910;2023-03-03T05:32:34;0.50;99.90
30308;DHT22;17114;52.314;8.910;2023-03-03T05:35:02;0.50;99.90
30308;DHT22;17114;52.314;8.910;2023-03-03T05:37:29;0.50;99.90
30308;DHT22;17114;52.314;8.910;2023-03-03T05:39:56;0.50;99.90
30308;DHT22;17114;52.314;8.910;2023-03-03T05:42:23;0.50;99.90
30308;DHT22;17114;52.314;8.910;2023-03-03T05:44:50;0.50;99.90
30308;DHT22;17114;52.314;8.910;2023-03-03T05:47:17;0.50;99.90
30308;DHT22;17114;52.314;8.910;2023-03-03T05:49:44;0.50;99.90
30308;DHT22;17114;52.314;8.910;2023-03-03T05:52:10;0.50;99.90
30308;DHT22;17114;52.314;8.910;2023-03-03T05:54:37;0.60;99.90
30308;DHT22;17114;52.314;8.910;2023-03-03T05:57:06;0.50;99.90
30308;DHT22;17114;52.314;8.910;2023-03-03T05:59:36;0.50;99.90
30308;DHT22;17114;52.314;8.910;2023-03-03T06:02:03;0.40;99.90
30308;DHT22;17114;52.314;8.910;2023-03-03T06:04:30;0.40;99.90
30308;DHT22;17114;52.314;8.910;2023-03-03T06:06:57;0.40;99.90
30308;DHT22;17114;52.314;8.910;2023-03-03T06:09:24;0.40;99.90
30308;DHT22;17114;52.314;8.910;2023-03-03T06:11:51;0.40;99.90
30308;DHT22;17114;52.314;8.910;2023-03-03T06:14:22;0.40;99.90
30308;DHT22;17114;52.314;8.910;2023-03-03T06:16:52;0.40;99.90
30308;DHT22;17114;52.314;8.910;2023-03-03T06:19:19;0.50;99.90
30308;DHT22;17114;52.314;8.910;2023-03-03T06:21:46;0.50;99.90
30308;DHT22;17114;52.314;8.910;2023-03-03T06:24:12;0.50;99.90
30308;DHT22;17114;52.314;8.910;2023-03-03T06:26:39;0.50;99.90
30308;DHT22;17114;52.314;8.910;2023-03-03T06:29:06;0.50;99.90
30308;DHT22;17114;52.314;8.910;2023-03-03T06:31:33;0.50;99.90
30308;DHT22;17114;52.314;8.910;2023-03-03T06:34:01;0.50;99.90
30308;DHT22;17114;52.314;8.910;2023-03-03T06:36:28;0.60;99.90
30308;DHT22;17114;52.314;8.910;2023-03-03T06:38:55;0.70;99.90
30308;DHT22;17114;52.314;8.910;2023-03-03T06:41:22;0.50;99.90
30308;DHT22;17114;52.314;8.910;2023-03-03T06:43:48;0.60;99.90
30308;DHT22;17114;52.314;8.910;2023-03-03T06:46:15;0.60;99.90
30308;DHT22;17114;52.314;8.910;2023-03-03T06:48:43;0.50;99.90
30308;DHT22;17114;52.314;8.910;2023-03-03T06:51:23;0.50;99.90
30308;DHT22;17114;52.314;8.910;2023-03-03T06:53:55;0.60;99.90
30308;DHT22;17114;52.314;8.910;2023-03-03T06:56:25;0.60;99.90
30308;DHT22;17114;52.314;8.910;2023-03-03T06:58:55;0.60;99.90
30308;DHT22;17114;52.314;8.910;2023-03-03T07:01:24;0.60;99.90
30308;DHT22;17114;52.314;8.910;2023-03-03T07:03:51;0.70;99.90
30308;DHT22;17114;52.314;8.910;2023-03-03T07:06:23;0.80;99.90
30308;DHT22;17114;52.314;8.910;2023-03-03T07:08:52;0.80;99.90
30308;DHT22;17114;52.314;8.910;2023-03-03T07:11:21;0.80;99.90
30308;DHT22;17114;52.314;8.910;2023-03-03T07:13:53;0.80;99.90
30308;DHT22;17114;52.314;8.910;2023-03-03T07:16:25;0.80;99.90
30308;DHT22;17114;52.314;8.910;2023-03-03T07:18:54;0.80;99.90
30308;DHT22;17114;52.314;8.910;2023-03-03T07:21:27;0.70;99.90
30308;DHT22;17114;52.314;8.910;2023-03-03T07:23:57;0.80;99.90
30308;DHT22;17114;52.314;8.910;2023-03-03T07:28:57;0.80;99.90
30308;DHT22;17114;52.314;8.910;2023-03-03T07:31:29;0.80;99.90
30308;DHT22;17114;52.314;8.910;2023-03-03T07:33:58;0.90;99.90
30308;DHT22;17114;52.314;8.910;2023-03-03T07:36:30;0.90;99.90
30308;DHT22;17114;52.314;8.910;2023-03-03T07:39:03;0.90;99.90
30308;DHT22;17114;52.314;8.910;2023-03-03T07:41:37;0.90;99.90
30308;DHT22;17114;52.314;8.910;2023-03-03T07:44:06;0.90;99.90
30308;DHT22;17114;52.314;8.910;2023-03-03T07:46:49;1.00;99.90
30308;DHT22;17114;52.314;8.910;2023-03-03T07:49:33;1.10;99.90
30308;DHT22;17114;52.314;8.910;2023-03-03T07:52:01;1.10;99.90
30308;DHT22;17114;52.314;8.910;2023-03-03T07:54:44;1.10;99.90
30308;DHT22;17114;52.314;8.910;2023-03-03T07:57:39;1.10;99.90
30308;DHT22;17114;52.314;8.910;2023-03-03T08:02:43;1.20;99.90
30308;DHT22;17114;52.314;8.910;2023-03-03T08:05:28;1.30;99.90
30308;DHT22;17114;52.314;8.910;2023-03-03T08:08:13;1.30;99.90
30308;DHT22;17114;52.314;8.910;2023-03-03T08:10:51;1.30;99.90
30308;DHT22;17114;52.314;8.910;2023-03-03T08:13:35;1.30;99.90
30308;DHT22;17114;52.314;8.910;2023-03-03T08:21:12;1.50;99.90
30308;DHT22;17114;52.314;8.910;2023-03-03T08:23:40;1.50;99.90
30308;DHT22;17114;52.314;8.910;2023-03-03T08:26:08;1.60;99.90
30308;DHT22;17114;52.314;8.910;2023-03-03T08:28:35;1.60;99.90
30308;DHT22;17114;52.314;8.910;2023-03-03T08:31:02;1.60;99.90
30308;DHT22;17114;52.314;8.910;2023-03-03T08:33:47;1.70;99.90
30308;DHT22;17114;52.314;8.910;2023-03-03T08:36:14;1.70;99.90
30308;DHT22;17114;52.314;8.910;2023-03-03T08:38:41;1.80;99.90
30308;DHT22;17114;52.314;8.910;2023-03-03T08:41:08;1.80;99.90
30308;DHT22;17114;52.314;8.910;2023-03-03T08:43:35;1.90;99.90
30308;DHT22;17114;52.314;8.910;2023-03-03T08:46:04;2.00;99.90
30308;DHT22;17114;52.314;8.910;2023-03-03T08:48:32;2.00;99.90
30308;DHT22;17114;52.314;8.910;2023-03-03T08:50:59;2.10;99.90
30308;DHT22;17114;52.314;8.910;2023-03-03T08:53:27;2.30;99.90
30308;DHT22;17114;52.314;8.910;2023-03-03T08:55:54;2.20;99.90
30308;DHT22;17114;52.314;8.910;2023-03-03T08:58:21;2.20;99.90
30308;DHT22;17114;52.314;8.910;2023-03-03T09:01:03;2.20;99.90
30308;DHT22;17114;52.314;8.910;2023-03-03T09:03:31;2.30;99.90
30308;DHT22;17114;52.314;8.910;2023-03-03T09:05:58;2.30;99.90
30308;DHT22;17114;52.314;8.910;2023-03-03T09:08:25;2.30;99.90
30308;DHT22;17114;52.314;8.910;2023-03-03T09:10:52;2.40;99.90
30308;DHT22;17114;52.314;8.910;2023-03-03T09:13:20;2.30;99.90
30308;DHT22;17114;52.314;8.910;2023-03-03T09:15:47;2.30;99.90
30308;DHT22;17114;52.314;8.910;2023-03-03T09:18:36;2.30;99.90
30308;DHT22;17114;52.314;8.910;2023-03-03T09:21:22;2.30;99.90
30308;DHT22;17114;52.314;8.910;2023-03-03T09:23:55;2.30;99.90
30308;DHT22;17114;52.314;8.910;2023-03-03T09:29:14;2.40;99.90
30308;DHT22;17114;52.314;8.910;2023-03-03T09:34:50;2.60;99.90
30308;DHT22;17114;52.314;8.910;2023-03-03T09:37:33;2.60;99.90
30308;DHT22;17114;52.314;8.910;2023-03-03T09:43:12;2.70;99.90
30308;DHT22;17114;52.314;8.910;2023-03-03T09:48:30;2.70;99.90
30308;DHT22;17114;52.314;8.910;2023-03-03T09:51:17;2.70;99.90
30308;DHT22;17114;52.314;8.910;2023-03-03T09:54:06;2.70;99.90
30308;DHT22;17114;52.314;8.910;2023-03-03T09:56:43;2.80;99.90
30308;DHT22;17114;52.314;8.910;2023-03-03T10:12:56;2.70;99.90
30308;DHT22;17114;52.314;8.910;2023-03-03T10:15:49;2.70;99.90
30308;DHT22;17114;52.314;8.910;2023-03-03T10:18:29;2.70;99.90
30308;DHT22;17114;52.314;8.910;2023-03-03T10:21:26;2.70;99.90
30308;DHT22;17114;52.314;8.910;2023-03-03T10:26:33;2.80;99.90
30308;DHT22;17114;52.314;8.910;2023-03-03T10:41:32;3.10;99.90
30308;DHT22;17114;52.314;8.910;2023-03-03T10:53:08;3.70;99.90
30308;DHT22;17114;52.314;8.910;2023-03-03T10:58:38;4.00;99.90
30308;DHT22;17114;52.314;8.910;2023-03-03T11:04:21;4.10;99.90
30308;DHT22;17114;52.314;8.910;2023-03-03T11:13:04;3.90;99.90
30308;DHT22;17114;52.314;8.910;2023-03-03T11:21:31;4.10;99.90
30308;DHT22;17114;52.314;8.910;2023-03-03T11:32:57;4.30;99.90
30308;DHT22;17114;52.314;8.910;2023-03-03T11:40:50;4.20;99.90
30308;DHT22;17114;52.314;8.910;2023-03-03T11:43:31;4.00;99.90
30308;DHT22;17114;52.314;8.910;2023-03-03T11:46:12;4.00;99.90
30308;DHT22;17114;52.314;8.910;2023-03-03T11:48:57;4.10;99.90
30308;DHT22;17114;52.314;8.910;2023-03-03T11:51:50;4.10;99.90
30308;DHT22;17114;52.314;8.910;2023-03-03T11:57:38;4.30;99.90
30308;DHT22;17114;52.314;8.910;2023-03-03T12:00:22;4.30;99.90
30308;DHT22;17114;52.314;8.910;2023-03-03T12:02:54;4.20;99.90
30308;DHT22;17114;52.314;8.910;2023-03-03T12:05:33;4.20;99.90
30308;DHT22;17114;52.314;8.910;2023-03-03T12:11:01;4.10;99.90
30308;DHT22;17114;52.314;8.910;2023-03-03T12:24:51;4.10;99.90
30308;DHT22;17114;52.314;8.910;2023-03-03T12:27:32;4.00;99.90
30308;DHT22;17114;52.314;8.910;2023-03-03T12:33:15;4.20;99.90
30308;DHT22;17114;52.314;8.910;2023-03-03T12:41:41;4.50;99.90
30308;DHT22;17114;52.314;8.910;2023-03-03T12:44:32;4.40;99.90
30308;DHT22;17114;52.314;8.910;2023-03-03T12:47:09;4.20;99.90
30308;DHT22;17114;52.314;8.910;2023-03-03T12:49:55;4.20;99.90
30308;DHT22;17114;52.314;8.910;2023-03-03T12:52:48;4.30;99.90
30308;DHT22;17114;52.314;8.910;2023-03-03T13:01:27;4.40;99.90
30308;DHT22;17114;52.314;8.910;2023-03-03T13:04:25;4.50;99.90
30308;DHT22;17114;52.314;8.910;2023-03-03T13:09:59;4.70;99.90
30308;DHT22;17114;52.314;8.910;2023-03-03T13:20:03;4.60;99.90
30308;DHT22;17114;52.314;8.910;2023-03-03T13:22:38;4.60;99.90
30308;DHT22;17114;52.314;8.910;2023-03-03T13:28:20;4.50;99.90
30308;DHT22;17114;52.314;8.910;2023-03-03T13:30:51;4.40;99.90
30308;DHT22;17114;52.314;8.910;2023-03-03T13:35:59;4.40;99.90
30308;DHT22;17114;52.314;8.910;2023-03-03T13:38:29;4.30;99.90
30308;DHT22;17114;52.314;8.910;2023-03-03T13:43:44;4.40;99.90
30308;DHT22;17114;52.314;8.910;2023-03-03T13:52:07;4.50;99.90
30308;DHT22;17114;52.314;8.910;2023-03-03T13:57:20;4.40;99.90
30308;DHT22;17114;52.314;8.910;2023-03-03T14:00:36;4.40;99.90
30308;DHT22;17114;52.314;8.910;2023-03-03T14:03:06;4.20;99.90
30308;DHT22;17114;52.314;8.910;2023-03-03T14:05:52;4.20;99.90
30308;DHT22;17114;52.314;8.910;2023-03-03T14:11:34;4.20;99.90
30308;DHT22;17114;52.314;8.910;2023-03-03T14:19:50;4.30;99.90
30308;DHT22;17114;52.314;8.910;2023-03-03T14:22:45;4.20;99.90
30308;DHT22;17114;52.314;8.910;2023-03-03T14:25:14;4.10;99.90
30308;DHT22;17114;52.314;8.910;2023-03-03T14:35:39;4.30;99.90
30308;DHT22;17114;52.314;8.910;2023-03-03T14:38:13;4.20;99.90
30308;DHT22;17114;52.314;8.910;2023-03-03T14:40:42;4.10;99.90
30308;DHT22;17114;52.314;8.910;2023-03-03T14:46:35;4.20;99.90
30308;DHT22;17114;52.314;8.910;2023-03-03T14:49:12;4.10;99.90
30308;DHT22;17114;52.314;8.910;2023-03-03T14:54:27;4.00;99.90
30308;DHT22;17114;52.314;8.910;2023-03-03T15:03:19;4.10;99.90
30308;DHT22;17114;52.314;8.910;2023-03-03T15:05:55;4.00;99.90
30308;DHT22;17114;52.314;8.910;2023-03-03T15:08:35;4.10;99.90
30308;DHT22;17114;52.314;8.910;2023-03-03T15:13:44;4.10;99.90
30308;DHT22;17114;52.314;8.910;2023-03-03T15:16:17;4.10;99.90
30308;DHT22;17114;52.314;8.910;2023-03-03T15:21:30;4.10;99.90
30308;DHT22;17114;52.314;8.910;2023-03-03T15:26:58;4.10;99.90
30308;DHT22;17114;52.314;8.910;2023-03-03T15:29:42;4.10;99.90
30308;DHT22;17114;52.314;8.910;2023-03-03T15:32:23;4.10;99.90
30308;DHT22;17114;52.314;8.910;2023-03-03T15:40:27;4.00;99.90
30308;DHT22;17114;52.314;8.910;2023-03-03T15:43:19;4.00;99.90
30308;DHT22;17114;52.314;8.910;2023-03-03T15:49:00;4.10;99.90
30308;DHT22;17114;52.314;8.910;2023-03-03T16:01:28;4.20;99.90
30308;DHT22;17114;52.314;8.910;2023-03-03T16:04:13;4.40;99.90
30308;DHT22;17114;52.314;8.910;2023-03-03T16:15:36;4.20;99.90
30308;DHT22;17114;52.314;8.910;2023-03-03T16:18:21;4.10;99.90
30308;DHT22;17114;52.314;8.910;2023-03-03T16:21:09;4.00;99.90
30308;DHT22;17114;52.314;8.910;2023-03-03T16:23:50;4.00;99.90
30308;DHT22;17114;52.314;8.910;2023-03-03T16:26:29;4.00;99.90
30308;DHT22;17114;52.314;8.910;2023-03-03T16:29:25;3.90;99.90
30308;DHT22;17114;52.314;8.910;2023-03-03T16:35:30;3.90;99.90
30308;DHT22;17114;52.314;8.910;2023-03-03T16:40:47;3.80;99.90
30308;DHT22;17114;52.314;8.910;2023-03-03T16:49:20;3.90;99.90
30308;DHT22;17114;52.314;8.910;2023-03-03T16:57:24;4.00;99.90
30308;DHT22;17114;52.314;8.910;2023-03-03T17:00:07;4.00;99.90
30308;DHT22;17114;52.314;8.910;2023-03-03T17:16:53;4.00;99.90
30308;DHT22;17114;52.314;8.910;2023-03-03T17:25:11;4.00;99.90
30308;DHT22;17114;52.314;8.910;2023-03-03T17:36:18;4.00;99.90
30308;DHT22;17114;52.314;8.910;2023-03-03T17:39:02;4.00;99.90
30308;DHT22;17114;52.314;8.910;2023-03-03T17:41:57;4.00;99.90
30308;DHT22;17114;52.314;8.910;2023-03-03T17:47:19;4.10;99.90
30308;DHT22;17114;52.314;8.910;2023-03-03T18:01:32;4.10;99.90
30308;DHT22;17114;52.314;8.910;2023-03-03T18:23:31;4.20;99.90
30308;DHT22;17114;52.314;8.910;2023-03-03T18:26:01;4.10;99.90
30308;DHT22;17114;52.314;8.910;2023-03-03T18:28:46;4.20;99.90
30308;DHT22;17114;52.314;8.910;2023-03-03T18:31:22;4.20;99.90
30308;DHT22;17114;52.314;8.910;2023-03-03T18:34:02;4.20;99.90
30308;DHT22;17114;52.314;8.910;2023-03-03T18:36:36;4.20;99.90
30308;DHT22;17114;52.314;8.910;2023-03-03T18:39:05;4.20;99.90
30308;DHT22;17114;52.314;8.910;2023-03-03T18:44:31;4.20;99.90
30308;DHT22;17114;52.314;8.910;2023-03-03T18:46:58;4.20;99.90
30308;DHT22;17114;52.314;8.910;2023-03-03T18:52:29;4.30;99.90
30308;DHT22;17114;52.314;8.910;2023-03-03T18:57:35;4.20;99.90
30308;DHT22;17114;52.314;8.910;2023-03-03T19:00:14;4.30;99.90
30308;DHT22;17114;52.314;8.910;2023-03-03T19:02:54;4.30;99.90
30308;DHT22;17114;52.314;8.910;2023-03-03T19:07:53;4.30;99.90
30308;DHT22;17114;52.314;8.910;2023-03-03T19:13:37;4.20;99.90
30308;DHT22;17114;52.314;8.910;2023-03-03T19:16:06;4.20;99.90
30308;DHT22;17114;52.314;8.910;2023-03-03T19:21:29;4.30;99.90
30308;DHT22;17114;52.314;8.910;2023-03-03T19:24:02;4.30;99.90
30308;DHT22;17114;52.314;8.910;2023-03-03T19:27:11;4.30;99.90
30308;DHT22;17114;52.314;8.910;2023-03-03T19:32:37;4.30;99.90
30308;DHT22;17114;52.314;8.910;2023-03-03T19:53:58;4.50;99.90
30308;DHT22;17114;52.314;8.910;2023-03-03T19:56:47;4.60;99.90
30308;DHT22;17114;52.314;8.910;2023-03-03T20:07:56;4.60;99.90
30308;DHT22;17114;52.314;8.910;2023-03-03T20:27:00;4.70;99.90
30308;DHT22;17114;52.314;8.910;2023-03-03T20:40:27;4.70;99.90
30308;DHT22;17114;52.314;8.910;2023-03-03T20:43:07;4.70;99.90
30308;DHT22;17114;52.314;8.910;2023-03-03T20:46:03;4.80;99.90
30308;DHT22;17114;52.314;8.910;2023-03-03T21:04:37;4.70;99.90
30308;DHT22;17114;52.314;8.910;2023-03-03T21:07:04;4.70;99.90
30308;DHT22;17114;52.314;8.910;2023-03-03T21:09:32;4.70;99.90
30308;DHT22;17114;52.314;8.910;2023-03-03T21:12:08;4.70;99.90
30308;DHT22;17114;52.314;8.910;2023-03-03T21:14:36;4.60;99.90
30308;DHT22;17114;52.314;8.910;2023-03-03T21:17:24;4.60;99.90
30308;DHT22;17114;52.314;8.910;2023-03-03T21:19:52;4.60;99.90
30308;DHT22;17114;52.314;8.910;2023-03-03T21:22:19;4.60;99.90
30308;DHT22;17114;52.314;8.910;2023-03-03T21:27:28;4.60;99.90
30308;DHT22;17114;52.314;8.910;2023-03-03T21:30:16;4.60;99.90
30308;DHT22;17114;52.314;8.910;2023-03-03T21:32:45;4.50;99.90
30308;DHT22;17114;52.314;8.910;2023-03-03T21:35:16;4.50;99.90
30308;DHT22;17114;52.314;8.910;2023-03-03T21:37:48;4.50;99.90
30308;DHT22;17114;52.314;8.910;2023-03-03T21:40:21;4.60;99.90
30308;DHT22;17114;52.314;8.910;2023-03-03T21:42:53;4.50;99.90
30308;DHT22;17114;52.314;8.910;2023-03-03T21:45:20;4.50;99.90
30308;DHT22;17114;52.314;8.910;2023-03-03T21:47:47;4.50;99.90
30308;DHT22;17114;52.314;8.910;2023-03-03T21:50:15;4.60;99.90
30308;DHT22;17114;52.314;8.910;2023-03-03T21:52:42;4.60;99.90
30308;DHT22;17114;52.314;8.910;2023-03-03T21:55:10;4.50;99.90
30308;DHT22;17114;52.314;8.910;2023-03-03T21:57:37;4.50;99.90
30308;DHT22;17114;52.314;8.910;2023-03-03T22:00:07;4.50;99.90
30308;DHT22;17114;52.314;8.910;2023-03-03T22:02:34;4.60;99.90
30308;DHT22;17114;52.314;8.910;2023-03-03T22:05:02;4.50;99.90
30308;DHT22;17114;52.314;8.910;2023-03-03T22:07:29;4.60;99.90
30308;DHT22;17114;52.314;8.910;2023-03-03T22:09:56;4.50;99.90
30308;DHT22;17114;52.314;8.910;2023-03-03T22:12:23;4.50;99.90
30308;DHT22;17114;52.314;8.910;2023-03-03T22:14:50;4.50;99.90
30308;DHT22;17114;52.314;8.910;2023-03-03T22:17:17;4.50;99.90
30308;DHT22;17114;52.314;8.910;2023-03-03T22:19:44;4.50;99.90
30308;DHT22;17114;52.314;8.910;2023-03-03T22:22:11;4.50;99.90
30308;DHT22;17114;52.314;8.910;2023-03-03T22:24:38;4.50;99.90
30308;DHT22;17114;52.314;8.910;2023-03-03T22:27:05;4.50;99.90
30308;DHT22;17114;52.314;8.910;2023-03-03T22:29:33;4.50;99.90
30308;DHT22;17114;52.314;8.910;2023-03-03T22:32:00;4.40;99.90
30308;DHT22;17114;52.314;8.910;2023-03-03T22:34:27;4.40;99.90
30308;DHT22;17114;52.314;8.910;2023-03-03T22:36:54;4.50;99.90
30308;DHT22;17114;52.314;8.910;2023-03-03T22:39:21;4.40;99.90
30308;DHT22;17114;52.314;8.910;2023-03-03T22:41:50;4.40;99.90
30308;DHT22;17114;52.314;8.910;2023-03-03T22:44:17;4.40;99.90
30308;DHT22;17114;52.314;8.910;2023-03-03T22:46:44;4.40;99.90
30308;DHT22;17114;52.314;8.910;2023-03-03T22:49:11;4.40;99.90
30308;DHT22;17114;52.314;8.910;2023-03-03T22:51:38;4.40;99.90
30308;DHT22;17114;52.314;8.910;2023-03-03T22:54:05;4.40;99.90
30308;DHT22;17114;52.314;8.910;2023-03-03T22:56:32;4.40;99.90
30308;DHT22;17114;52.314;8.910;2023-03-03T22:58:59;4.30;99.90
30308;DHT22;17114;52.314;8.910;2023-03-03T23:01:26;4.30;99.90